Time;durP1;ratioP1;P1;durP2;ratioP2;P2;SDS_P1;SDS_P2;PMS_P1;PMS_P2;Temp;Humidity;BMP_temperature;BMP_pressure;BME280_temperature;BME280_humidity;BME280_pressure;Samples;Min_cycle;Max_cycle;Signal;HPM_P1;HPM_P2
2022/05/06 00:01:37;;;;;;;0.32;0.32;;;6.50;91.00;;;;;;4954487;29;20060;-68
2022/05/06 00:04:04;;;;;;;1.00;0.30;;;6.50;91.10;;;;;;4954474;29;20390;-67
2022/05/06 00:06:31;;;;;;;0.68;0.30;;;6.50;91.20;;;;;;4954752;29;20106;-68
2022/05/06 00:08:57;;;;;;;1.67;0.40;;;6.50;91.30;;;;;;4954453;29;20098;-68
2022/05/06 00:11:24;;;;;;;1.65;0.40;;;6.40;91.50;;;;;;4954670;29;20027;-68
2022/05/06 00:13:52;;;;;;;1.25;0.40;;;6.40;91.60;;;;;;4954357;29;20603;-67
2022/05/06 00:16:19;;;;;;;0.43;0.43;;;6.40;91.60;;;;;;4954320;29;20035;-66
2022/05/06 00:18:45;;;;;;;0.30;0.30;;;6.40;91.80;;;;;;4954257;29;20401;-66
2022/05/06 00:21:11;;;;;;;0.75;0.35;;;6.30;92.10;;;;;;4953987;29;20027;-66
2022/05/06 00:23:37;;;;;;;0.57;0.40;;;6.30;92.30;;;;;;4953918;28;20034;-66
2022/05/06 00:26:03;;;;;;;0.35;0.32;;;6.30;92.50;;;;;;4954046;29;20459;-66
2022/05/06 00:28:30;;;;;;;1.75;0.30;;;6.20;92.60;;;;;;4954120;29;20023;-66
2022/05/06 00:30:56;;;;;;;2.15;0.40;;;6.10;92.80;;;;;;4953876;29;20419;-66
2022/05/06 00:33:24;;;;;;;2.92;0.32;;;6.20;93.00;;;;;;4953900;29;20028;-66
2022/05/06 00:35:57;;;;;;;1.15;0.38;;;6.10;93.00;;;;;;4953939;28;20035;-66
2022/05/06 00:38:23;;;;;;;0.68;0.47;;;6.10;93.40;;;;;;4953898;28;20138;-66
2022/05/06 00:40:49;;;;;;;0.40;0.32;;;6.10;93.60;;;;;;4954065;29;20122;-66
2022/05/06 00:43:14;;;;;;;0.73;0.40;;;6.10;93.60;;;;;;4953970;29;20038;-66
2022/05/06 00:45:54;;;;;;;1.65;0.38;;;6.10;93.60;;;;;;4953895;29;20028;-66
2022/05/06 00:48:23;;;;;;;1.08;0.20;;;6.10;93.80;;;;;;4953770;29;20423;-67
2022/05/06 00:50:49;;;;;;;0.35;0.35;;;6.10;93.80;;;;;;4954120;29;20027;-66
2022/05/06 00:53:15;;;;;;;0.90;0.30;;;6.10;94.10;;;;;;4953690;29;20066;-73
2022/05/06 00:55:42;;;;;;;1.23;0.40;;;6.10;94.20;;;;;;4953768;29;20479;-68
2022/05/06 00:58:08;;;;;;;10.07;0.80;;;6.00;94.60;;;;;;4953568;29;20039;-67
2022/05/06 01:00:34;;;;;;;3.15;0.50;;;6.00;94.70;;;;;;4953801;29;20482;-67
2022/05/06 01:03:00;;;;;;;2.15;0.40;;;5.90;95.10;;;;;;4953588;29;20028;-67
2022/05/06 01:05:26;;;;;;;2.90;0.40;;;5.80;95.20;;;;;;4953732;29;20383;-68
2022/05/06 01:07:53;;;;;;;0.50;0.30;;;5.80;95.60;;;;;;4953876;29;20023;-67
2022/05/06 01:10:21;;;;;;;0.45;0.40;;;5.80;95.80;;;;;;4953531;29;20114;-67
2022/05/06 01:12:48;;;;;;;0.95;0.40;;;5.70;96.20;;;;;;4953875;29;20102;-68
2022/05/06 01:15:20;;;;;;;2.58;0.40;;;5.70;96.40;;;;;;4953484;29;20166;-68
2022/05/06 01:17:51;;;;;;;0.30;0.30;;;5.70;96.70;;;;;;4953699;29;20035;-68
2022/05/06 01:20:17;;;;;;;;;;;5.70;96.70;;;;;;4953902;29;20513;-69
2022/05/06 01:23:04;;;;;;;1.92;0.60;;;5.70;97.70;;;;;;4953808;29;19906;-69
2022/05/06 01:25:30;;;;;;;1.05;0.40;;;5.60;97.40;;;;;;4953861;29;20035;-69
2022/05/06 01:28:02;;;;;;;3.72;0.40;;;5.60;97.20;;;;;;4953727;29;20038;-69
2022/05/06 01:30:29;;;;;;;1.23;0.45;;;5.60;97.20;;;;;;4953626;29;20027;-68
2022/05/06 01:32:56;;;;;;;1.00;0.70;;;5.70;97.30;;;;;;4953837;29;20035;-68
2022/05/06 01:35:24;;;;;;;2.90;0.40;;;5.70;97.50;;;;;;4955605;28;20423;-68
2022/05/06 01:37:53;;;;;;;0.45;0.43;;;5.60;97.60;;;;;;4956902;28;20083;-68
2022/05/06 01:40:21;;;;;;;0.45;0.45;;;5.60;97.80;;;;;;4957294;29;20443;-68
2022/05/06 01:42:50;;;;;;;2.88;0.55;;;5.60;97.70;;;;;;4956907;29;20491;-68
2022/05/06 01:45:18;;;;;;;0.60;0.40;;;5.60;97.80;;;;;;4956796;29;20078;-68
2022/05/06 01:47:44;;;;;;;1.55;0.50;;;5.70;97.70;;;;;;4956955;29;20027;-68
2022/05/06 01:50:12;;;;;;;1.75;0.60;;;5.60;98.30;;;;;;4956779;29;20110;-68
2022/05/06 01:52:41;;;;;;;0.30;0.30;;;5.50;98.80;;;;;;4956766;29;20037;-68
2022/05/06 01:55:07;;;;;;;0.65;0.40;;;5.40;99.10;;;;;;4956710;29;20394;-68
2022/05/06 01:57:33;;;;;;;2.38;0.40;;;5.50;99.10;;;;;;4956692;29;20418;-68
2022/05/06 01:59:58;;;;;;;4.05;0.40;;;5.60;98.70;;;;;;4956902;29;20030;-68
2022/05/06 02:02:24;;;;;;;2.00;0.40;;;5.60;98.20;;;;;;4956829;29;20035;-68
2022/05/06 02:05:35;;;;;;;1.42;0.40;;;5.60;98.10;;;;;;4956630;29;20074;-68
2022/05/06 02:07:36;;;;;;;0.52;0.40;;;5.60;98.10;;;;;;4946214;29;20047;-68
2022/05/06 02:10:02;;;;;;;2.00;0.60;;;5.60;98.10;;;;;;4956446;29;20027;-68
2022/05/06 02:12:28;;;;;;;3.75;0.50;;;5.60;98.20;;;;;;4956477;29;20499;-67
2022/05/06 02:14:54;;;;;;;1.17;0.50;;;5.60;98.50;;;;;;4956388;29;20058;-68
2022/05/06 02:17:19;;;;;;;0.95;0.50;;;5.50;99.10;;;;;;4956396;29;20039;-68
2022/05/06 02:19:45;;;;;;;0.75;0.40;;;5.40;99.20;;;;;;4956627;29;20019;-68
2022/05/06 02:22:10;;;;;;;0.30;0.25;;;5.50;99.00;;;;;;4956400;29;20023;-68
2022/05/06 02:56:06;;;;;;;0.35;0.30;;;5.30;99.90;;;;;;4961822;28;20459;-68
2022/05/06 02:58:31;;;;;;;1.45;0.40;;;5.40;99.90;;;;;;4955644;29;20051;-68
2022/05/06 03:00:57;;;;;;;1.83;0.40;;;5.60;99.90;;;;;;4956063;29;20110;-68
2022/05/06 03:37:02;;;;;;;2.33;0.30;;;8.70;93.10;;;;;;6014790;23;20005;-71
2022/05/06 03:39:28;;;;;;;0.65;0.40;;;9.00;92.00;;;;;;5010489;28;20471;-71
2022/05/06 03:41:54;;;;;;;0.47;0.32;;;9.20;91.10;;;;;;5013301;28;20054;-71
2022/05/06 03:44:19;;;;;;;4.80;0.32;;;9.30;90.40;;;;;;5013174;28;20021;-71
2022/05/06 03:46:45;;;;;;;0.93;0.38;;;9.40;90.10;;;;;;5013154;28;20090;-72
2022/05/06 03:49:11;;;;;;;0.70;0.30;;;9.40;90.00;;;;;;5013286;28;20025;-72
2022/05/06 03:51:36;;;;;;;2.28;0.35;;;9.50;88.70;;;;;;5013017;28;20422;-71
2022/05/06 03:54:02;;;;;;;1.27;0.40;;;9.50;87.70;;;;;;5013256;28;20366;-71
2022/05/06 03:56:28;;;;;;;0.20;0.20;;;9.50;88.10;;;;;;5012792;28;20048;-72
2022/05/06 03:58:53;;;;;;;2.75;0.40;;;9.40;87.20;;;;;;5012327;28;20041;-71
2022/05/06 04:01:19;;;;;;;2.53;1.30;;;9.40;87.40;;;;;;5013059;28;20097;-72
2022/05/06 04:03:49;;;;;;;0.63;0.30;;;9.30;87.10;;;;;;5012779;28;20453;-72
2022/05/06 04:06:15;;;;;;;0.30;0.30;;;9.20;87.30;;;;;;5013047;28;20030;-72
2022/05/06 04:08:42;;;;;;;0.35;0.20;;;9.20;87.40;;;;;;5012672;28;20029;-72
2022/05/06 04:11:09;;;;;;;2.28;0.50;;;9.10;87.20;;;;;;5013124;28;20056;-72
2022/05/06 04:13:35;;;;;;;0.77;0.40;;;9.20;87.80;;;;;;4994979;28;20153;-71
2022/05/06 04:16:04;;;;;;;0.60;0.40;;;9.50;87.10;;;;;;5013084;28;20105;-71
2022/05/06 04:18:30;;;;;;;2.60;0.70;;;9.90;85.70;;;;;;5012705;28;20121;-71
2022/05/06 04:23:40;;;;;;;1.92;0.30;;;10.50;84.30;;;;;;5012545;28;20096;-72
2022/05/06 04:26:08;;;;;;;3.25;0.40;;;11.00;81.70;;;;;;5012550;28;20469;-72
2022/05/06 04:28:35;;;;;;;1.73;0.30;;;11.20;78.80;;;;;;5012588;28;20048;-72
2022/05/06 04:31:01;;;;;;;0.85;0.30;;;11.50;77.50;;;;;;5012428;28;20069;-72
2022/05/06 04:33:28;;;;;;;1.42;0.35;;;11.80;76.50;;;;;;5012338;28;20400;-70
2022/05/06 04:35:54;;;;;;;2.88;0.45;;;12.10;75.90;;;;;;5012437;28;20030;-72
2022/05/06 04:38:22;;;;;;;7.30;0.68;;;12.30;75.00;;;;;;5011957;28;20050;-69
2022/05/06 04:40:49;;;;;;;7.03;0.30;;;12.50;73.00;;;;;;5012019;28;20018;-70
2022/05/06 04:43:17;;;;;;;0.55;0.30;;;13.20;79.00;;;;;;5012213;28;20044;-69
2022/05/06 04:45:44;;;;;;;2.70;0.40;;;14.10;75.70;;;;;;5012041;28;20022;-68
2022/05/06 04:48:11;;;;;;;7.53;0.43;;;14.60;70.30;;;;;;5019739;28;20430;-77
2022/05/06 04:50:38;;;;;;;4.90;0.50;;;14.50;66.10;;;;;;5030983;28;20026;-74
2022/05/06 04:53:07;;;;;;;23.10;1.23;;;14.40;66.70;;;;;;5011273;28;20029;-71
2022/05/06 04:55:53;;;;;;;2.55;0.22;;;14.50;66.50;;;;;;5011014;28;20048;-77
2022/05/06 04:58:19;;;;;;;0.82;0.20;;;14.60;65.90;;;;;;5008125;28;20459;-73
2022/05/06 05:00:45;;;;;;;5.63;0.35;;;14.60;65.40;;;;;;5011344;28;20029;-72
2022/05/06 05:03:11;;;;;;;1.85;0.30;;;14.80;63.80;;;;;;5011405;28;20109;-71
2022/05/06 05:05:37;;;;;;;2.47;0.25;;;14.80;63.40;;;;;;5011201;28;20018;-71
2022/05/06 05:08:03;;;;;;;6.03;0.65;;;15.00;62.70;;;;;;5011317;28;20121;-70
2022/05/06 05:10:29;;;;;;;5.07;0.65;;;14.90;62.30;;;;;;5015315;28;20573;-70
2022/05/06 05:12:54;;;;;;;4.55;0.52;;;15.10;62.50;;;;;;5015619;28;20120;-69
2022/05/06 05:15:20;;;;;;;4.15;0.50;;;15.40;61.20;;;;;;5016184;28;20101;-69
2022/05/06 05:17:47;;;;;;;1.73;0.20;;;15.50;60.80;;;;;;4998107;28;20040;-74
2022/05/06 05:20:14;;;;;;;1.80;0.40;;;15.70;60.20;;;;;;5015330;28;20393;-68
2022/05/06 05:22:40;;;;;;;0.57;0.20;;;15.80;59.30;;;;;;5015338;28;20061;-68
2022/05/06 05:25:06;;;;;;;3.90;0.63;;;16.00;58.80;;;;;;5015663;28;20036;-68
2022/05/06 05:27:33;;;;;;;1.70;0.35;;;16.10;58.60;;;;;;5016012;28;20045;-68
2022/05/06 05:30:00;;;;;;;2.72;0.63;;;16.10;59.20;;;;;;5015796;28;20073;-68
2022/05/06 05:32:26;;;;;;;0.73;0.30;;;16.10;57.90;;;;;;5015787;28;20030;-68
2022/05/06 05:34:52;;;;;;;60.42;2.25;;;16.30;57.10;;;;;;5015438;28;20468;-68
2022/05/06 05:37:18;;;;;;;1.50;1.00;;;16.30;56.90;;;;;;5015418;28;20050;-68
2022/05/06 05:39:44;;;;;;;1.70;0.20;;;16.30;56.40;;;;;;5015565;28;20022;-68
2022/05/06 05:42:10;;;;;;;1.80;0.30;;;16.50;56.60;;;;;;5015613;28;20036;-68
2022/05/06 05:50:05;;;;;;;0.68;0.40;;;16.80;55.00;;;;;;5015468;28;20025;-68
2022/05/06 05:52:32;;;;;;;2.20;0.38;;;17.10;55.70;;;;;;5015303;28;20060;-67
2022/05/06 05:54:58;;;;;;;0.70;0.40;;;17.30;54.90;;;;;;5014929;28;20092;-67
2022/05/06 05:57:24;;;;;;;4.60;0.20;;;17.40;54.00;;;;;;5015136;28;20113;-69
2022/05/06 05:59:49;;;;;;;0.93;0.20;;;17.40;53.60;;;;;;5014606;28;20037;-69
2022/05/06 06:02:16;;;;;;;0.30;0.17;;;17.30;53.70;;;;;;5013724;28;20453;-70
2022/05/06 06:04:43;;;;;;;5.15;0.50;;;17.40;53.70;;;;;;5011492;28;20041;-72
2022/05/06 06:07:09;;;;;;;4.20;0.30;;;17.50;52.90;;;;;;5014955;28;20080;-73
2022/05/06 06:09:35;;;;;;;8.68;0.40;;;17.50;52.90;;;;;;5014551;28;20022;-76
2022/05/06 06:12:01;;;;;;;0.77;0.30;;;17.80;57.30;;;;;;5015141;28;20030;-77
2022/05/06 06:14:26;;;;;;;10.60;1.80;;;18.30;57.10;;;;;;5014862;28;20029;-73
2022/05/06 06:16:52;;;;;;;9.23;0.60;;;18.50;56.20;;;;;;5014048;28;20030;-78
2022/05/06 06:19:18;;;;;;;1.92;0.40;;;18.70;56.90;;;;;;5014279;28;20022;-72
2022/05/06 06:21:44;;;;;;;10.85;1.27;;;18.70;55.10;;;;;;5013621;28;20142;-69
2022/05/06 06:24:10;;;;;;;1.95;0.40;;;18.50;52.20;;;;;;5014868;28;20033;-66
2022/05/06 06:26:36;;;;;;;2.75;0.68;;;18.20;51.80;;;;;;5014466;28;20014;-68
2022/05/06 06:29:03;;;;;;;1.48;0.30;;;18.00;52.40;;;;;;5014409;28;20113;-66
2022/05/06 06:31:31;;;;;;;2.30;0.40;;;18.10;53.90;;;;;;5014538;28;20026;-67
2022/05/06 06:34:01;;;;;;;0.15;0.10;;;18.40;53.90;;;;;;5014617;28;20034;-66
2022/05/06 06:36:27;;;;;;;4.40;0.50;;;18.40;52.60;;;;;;5014465;28;20499;-66
2022/05/06 06:38:53;;;;;;;1.85;0.20;;;18.40;52.20;;;;;;5013945;28;20137;-66
2022/05/06 06:41:20;;;;;;;4.10;0.20;;;18.30;50.90;;;;;;5014481;28;20025;-66
2022/05/06 06:43:47;;;;;;;0.80;0.25;;;18.10;50.60;;;;;;5014147;28;20030;-66
2022/05/06 06:46:13;;;;;;;3.50;0.30;;;17.90;50.80;;;;;;5014200;28;20033;-66
2022/05/06 06:48:40;;;;;;;5.43;0.70;;;17.70;51.00;;;;;;5014276;28;20029;-68
2022/05/06 06:51:06;;;;;;;3.40;0.32;;;17.90;53.80;;;;;;5014306;28;20033;-67
2022/05/06 06:53:31;;;;;;;8.15;0.73;;;17.90;54.70;;;;;;4996668;28;20092;-68
2022/05/06 06:55:57;;;;;;;7.47;0.77;;;18.20;57.40;;;;;;5014139;28;20030;-67
2022/05/06 06:58:25;;;;;;;3.05;0.55;;;18.30;52.60;;;;;;5013749;28;20445;-65
2022/05/06 07:00:50;;;;;;;4.22;0.32;;;18.10;51.80;;;;;;5011458;28;20049;-73
2022/05/06 07:03:16;;;;;;;1.35;0.15;;;17.90;51.30;;;;;;5011146;28;20057;-70
2022/05/06 07:11:52;;;;;;;3.78;0.30;;;17.70;51.20;;;;;;5012432;28;20495;-73
2022/05/06 07:13:57;;;;;;;0.40;0.20;;;17.20;51.20;;;;;;4993680;28;20045;-72
2022/05/06 07:16:23;;;;;;;3.00;0.30;;;17.00;51.40;;;;;;5008562;28;20022;-72
2022/05/06 07:18:50;;;;;;;3.33;0.40;;;16.90;51.90;;;;;;5011916;28;20038;-72
2022/05/06 07:21:16;;;;;;;11.88;1.30;;;16.90;51.70;;;;;;4995310;28;20033;-73
2022/05/06 07:23:41;;;;;;;3.22;0.32;;;16.90;51.40;;;;;;5013644;28;20026;-73
2022/05/06 07:26:07;;;;;;;5.85;0.75;;;17.00;51.40;;;;;;5013492;28;20030;-76
2022/05/06 07:28:33;;;;;;;3.47;0.40;;;17.10;51.90;;;;;;5013581;28;20085;-74
2022/05/06 07:30:59;;;;;;;5.15;0.50;;;17.30;56.90;;;;;;5013199;28;20022;-72
2022/05/06 07:33:24;;;;;;;8.02;0.70;;;17.20;56.00;;;;;;5012362;28;20484;-80
2022/05/06 07:35:50;;;;;;;3.08;0.55;;;17.40;56.70;;;;;;5012922;28;20018;-77
2022/05/06 07:38:16;;;;;;;9.38;0.93;;;17.60;55.30;;;;;;5002387;28;20536;-72
2022/05/06 07:40:42;;;;;;;3.17;0.25;;;17.50;54.90;;;;;;5013089;28;20018;-73
2022/05/06 07:43:07;;;;;;;3.10;0.30;;;17.50;52.70;;;;;;5013093;28;20030;-76
2022/05/06 07:45:33;;;;;;;0.50;0.32;;;17.20;53.40;;;;;;5013143;28;20033;-76
2022/05/06 07:48:00;;;;;;;4.53;0.60;;;17.10;55.50;;;;;;5013095;28;20022;-76
2022/05/06 07:50:26;;;;;;;3.13;0.75;;;17.00;54.70;;;;;;5013119;28;20048;-74
2022/05/06 07:53:01;;;;;;;3.65;0.50;;;17.10;52.60;;;;;;5089487;27;20436;-75
2022/05/06 07:55:26;;;;;;;2.33;0.32;;;17.00;51.90;;;;;;5089816;28;20036;-73
2022/05/06 07:57:53;;;;;;;2.33;0.43;;;16.80;51.40;;;;;;5089346;28;20033;-75
2022/05/06 08:00:23;;;;;;;0.30;0.30;;;16.80;51.50;;;;;;5089671;28;20095;-74
2022/05/06 08:05:33;;;;;;;7.00;1.00;;;16.60;51.30;;;;;;5089311;28;20575;-74
2022/05/06 08:07:59;;;;;;;3.30;0.63;;;16.60;55.90;;;;;;5089114;28;20016;-74
2022/05/06 08:10:25;;;;;;;1.73;0.40;;;17.10;59.10;;;;;;5089139;28;20471;-75
2022/05/06 08:12:51;;;;;;;1.65;0.40;;;17.50;58.10;;;;;;5088957;28;20037;-80
2022/05/06 08:15:17;;;;;;;2.33;0.52;;;17.60;56.70;;;;;;5089086;28;20026;-75
2022/05/06 08:17:42;;;;;;;16.15;0.85;;;17.50;58.10;;;;;;5088617;28;20111;-75
2022/05/06 08:20:09;;;;;;;3.17;0.50;;;17.50;56.00;;;;;;5088891;28;20060;-71
2022/05/06 08:22:38;;;;;;;5.43;0.50;;;17.50;54.80;;;;;;5088723;28;20505;-69
2022/05/06 08:25:11;;;;;;;1.45;0.50;;;17.40;56.90;;;;;;5088077;28;20032;-72
2022/05/06 08:27:41;;;;;;;3.72;0.60;;;17.40;55.30;;;;;;5088546;28;20016;-75
2022/05/06 08:30:07;;;;;;;;;;;17.30;52.50;;;;;;5087255;28;20063;-76
2022/05/06 08:32:33;;;;;;;13.63;0.93;;;17.00;51.90;;;;;;5089017;28;19912;-74
2022/05/06 08:34:59;;;;;;;5.45;0.50;;;16.90;54.30;;;;;;5088273;28;20086;-78
2022/05/06 08:37:25;;;;;;;5.60;0.40;;;17.00;56.10;;;;;;5081632;28;20029;-72
2022/05/06 08:39:51;;;;;;;3.38;0.50;;;17.00;55.00;;;;;;5068489;28;20521;-77
2022/05/06 08:42:21;;;;;;;7.82;0.80;;;17.00;55.60;;;;;;5068698;28;20029;-77
2022/05/06 08:53:05;;;;;;;6.85;0.68;;;17.10;55.00;;;;;;5068041;28;20143;-76
2022/05/06 08:55:32;;;;;;;5.63;0.43;;;17.10;54.60;;;;;;5068152;28;20025;-78
2022/05/06 08:57:58;;;;;;;1.33;0.40;;;17.20;53.90;;;;;;5067787;28;20025;-78
2022/05/06 09:00:28;;;;;;;6.75;1.40;;;17.00;50.10;;;;;;5067922;28;20100;-81
2022/05/06 09:02:54;;;;;;;5.28;0.30;;;16.80;52.70;;;;;;5062557;28;20013;-74
2022/05/06 09:05:21;;;;;;;2.22;0.20;;;16.70;51.00;;;;;;5054711;28;20032;-74
2022/05/06 09:08:04;;;;;;;4.65;0.50;;;16.50;50.50;;;;;;5054487;28;20098;-74
2022/05/06 09:10:30;;;;;;;0.93;0.30;;;16.30;50.60;;;;;;5053993;28;20464;-75
2022/05/06 09:12:59;;;;;;;1.65;0.40;;;16.20;50.40;;;;;;5054427;28;20041;-75
2022/05/06 09:18:17;;;;;;;0.68;0.35;;;16.10;51.10;;;;;;5054814;28;20406;-77
2022/05/06 09:20:43;;;;;;;1.88;0.57;;;16.00;50.00;;;;;;5054273;28;20495;-77
2022/05/06 09:23:26;;;;;;;8.77;0.90;;;16.10;49.60;;;;;;5054390;28;20033;-77
2022/05/06 09:25:53;;;;;;;3.92;0.63;;;16.10;49.40;;;;;;5054298;28;20515;-77
2022/05/06 09:28:27;;;;;;;6.65;0.80;;;16.20;49.30;;;;;;5054424;28;20025;-70
2022/05/06 09:31:09;;;;;;;2.97;1.90;;;16.30;49.40;;;;;;5054225;28;20383;-67
2022/05/06 09:33:40;;;;;;;1.35;0.60;;;16.20;49.40;;;;;;5054559;28;20033;-68
2022/05/06 09:36:23;;;;;;;2.30;0.60;;;16.20;49.30;;;;;;5054058;28;20017;-69
2022/05/06 09:39:03;;;;;;;1.98;0.52;;;16.30;49.20;;;;;;5054231;28;20111;-68
2022/05/06 09:41:28;;;;;;;1.05;0.38;;;16.30;49.10;;;;;;5054503;28;20029;-71
2022/05/06 09:44:01;;;;;;;0.55;0.40;;;16.20;49.80;;;;;;5053941;28;20099;-69
2022/05/06 09:46:27;;;;;;;9.13;0.70;;;16.30;50.00;;;;;;5054512;28;20051;-72
2022/05/06 09:48:57;;;;;;;10.38;1.08;;;16.40;50.30;;;;;;5053904;28;20029;-75
2022/05/06 09:51:28;;;;;;;5.28;0.80;;;16.50;51.90;;;;;;5053757;28;20045;-74
2022/05/06 09:53:55;;;;;;;11.23;0.75;;;16.80;55.90;;;;;;5053818;28;20052;-71
2022/05/06 09:56:21;;;;;;;12.95;0.90;;;17.10;54.10;;;;;;5054011;28;20021;-70
2022/05/06 09:58:46;;;;;;;10.02;0.75;;;17.00;51.70;;;;;;5053500;28;20100;-71
2022/05/06 10:01:15;;;;;;;2.38;0.60;;;16.80;52.60;;;;;;5053540;28;20104;-70
2022/05/06 10:03:41;;;;;;;5.20;0.40;;;16.80;52.00;;;;;;5053611;28;20021;-71
2022/05/06 10:06:09;;;;;;;6.68;0.60;;;16.60;51.30;;;;;;5053402;28;20021;-72
2022/05/06 10:08:44;;;;;;;2.13;0.73;;;16.40;51.70;;;;;;5053619;28;20025;-73
2022/05/06 10:11:14;;;;;;;6.53;1.27;;;16.40;51.90;;;;;;5053388;28;20029;-82
2022/05/06 10:13:43;;;;;;;1.08;0.47;;;16.30;52.20;;;;;;5053478;28;20024;-80
2022/05/06 10:16:10;;;;;;;1.57;0.60;;;16.30;52.20;;;;;;5052623;28;20136;-72
2022/05/06 10:18:41;;;;;;;2.97;0.55;;;16.30;53.20;;;;;;5053463;28;20384;-71
2022/05/06 10:21:07;;;;;;;5.07;0.60;;;16.40;53.10;;;;;;5053148;28;20036;-72
2022/05/06 10:23:53;;;;;;;6.63;0.90;;;16.40;53.40;;;;;;5053286;28;20040;-72
2022/05/06 10:26:34;;;;;;;2.75;0.45;;;16.40;53.70;;;;;;5053186;28;20017;-71
2022/05/06 10:34:31;;;;;;;9.63;0.85;;;16.50;53.50;;;;;;5052700;28;20048;-69
2022/05/06 10:37:00;;;;;;;2.72;0.50;;;16.50;54.00;;;;;;5052605;28;20060;-69
2022/05/06 10:39:36;;;;;;;1.75;0.32;;;16.30;53.60;;;;;;5051534;28;20071;-68
2022/05/06 10:42:02;;;;;;;5.50;0.47;;;16.40;54.90;;;;;;5052985;28;20115;-70
2022/05/06 10:44:41;;;;;;;4.55;0.90;;;16.40;54.30;;;;;;5051394;28;20108;-73
2022/05/06 10:47:13;;;;;;;4.07;0.70;;;16.50;54.90;;;;;;5052799;28;20074;-74
2022/05/06 10:49:39;;;;;;;4.10;0.50;;;16.60;55.80;;;;;;5052977;28;20119;-73
2022/05/06 10:52:18;;;;;;;2.03;0.47;;;16.70;56.10;;;;;;5052294;28;20128;-73
2022/05/06 10:54:48;;;;;;;4.35;0.80;;;17.00;56.80;;;;;;5052487;28;20383;-69
2022/05/06 10:57:18;;;;;;;3.58;1.20;;;17.00;56.20;;;;;;5052776;28;20021;-73
2022/05/06 10:59:50;;;;;;;;;;;17.10;55.60;;;;;;5053015;28;20052;-76
2022/05/06 11:02:16;;;;;;;2.67;0.60;;;17.00;55.80;;;;;;5052740;28;19909;-74
2022/05/06 11:04:55;;;;;;;1.08;0.32;;;17.00;55.60;;;;;;5054465;28;20052;-73
2022/05/06 11:07:22;;;;;;;3.75;0.45;;;17.00;55.40;;;;;;5052533;28;20060;-78
2022/05/06 11:09:48;;;;;;;14.30;1.50;;;17.00;55.20;;;;;;5051434;28;20423;-82
2022/05/06 11:12:37;;;;;;;1.27;0.40;;;16.90;55.30;;;;;;5053216;28;20513;-84
2022/05/06 11:15:06;;;;;;;3.47;0.70;;;16.90;56.00;;;;;;5052649;28;20385;-73
2022/05/06 11:17:33;;;;;;;10.73;1.13;;;16.90;56.20;;;;;;5052316;28;20056;-85
2022/05/06 11:19:59;;;;;;;13.35;1.15;;;17.00;57.10;;;;;;5052418;28;20028;-72
2022/05/06 11:22:25;;;;;;;1.33;0.40;;;17.10;56.60;;;;;;5052215;28;20028;-72
2022/05/06 11:24:57;;;;;;;1.02;0.40;;;17.10;55.80;;;;;;5052138;28;20021;-72
2022/05/06 11:27:24;;;;;;;1.08;0.30;;;16.90;56.20;;;;;;5052021;28;20035;-72
2022/05/06 11:29:50;;;;;;;0.82;0.40;;;16.90;56.20;;;;;;5051795;28;20029;-72
2022/05/06 11:32:17;;;;;;;1.02;0.43;;;16.90;56.60;;;;;;5051917;28;20610;-72
2022/05/06 11:35:15;;;;;;;2.70;0.40;;;16.90;56.60;;;;;;5052143;28;20368;-72
2022/05/06 11:37:41;;;;;;;3.67;0.60;;;16.90;56.60;;;;;;5050394;28;20025;-72
2022/05/06 11:40:32;;;;;;;7.63;0.70;;;16.90;56.70;;;;;;5051592;28;20477;-72
2022/05/06 11:43:06;;;;;;;1.95;0.30;;;16.80;56.60;;;;;;5051748;28;20112;-72
2022/05/06 11:48:20;;;;;;;6.25;0.50;;;16.70;57.20;;;;;;5051898;28;20560;-72
2022/05/06 11:50:48;;;;;;;1.38;0.40;;;16.80;57.80;;;;;;5051235;28;20498;-73
2022/05/06 11:53:17;;;;;;;3.42;0.40;;;16.80;57.50;;;;;;5051407;28;20056;-72
2022/05/06 11:55:44;;;;;;;2.88;0.50;;;16.90;58.00;;;;;;5051287;28;20051;-72
2022/05/06 11:58:15;;;;;;;6.93;0.60;;;16.90;57.60;;;;;;5051435;28;20449;-72
2022/05/06 12:00:42;;;;;;;4.40;0.40;;;17.00;57.60;;;;;;5050131;28;20021;-72
2022/05/06 12:03:09;;;;;;;5.28;0.30;;;17.00;57.60;;;;;;5051331;28;20029;-72
2022/05/06 12:05:40;;;;;;;2.63;0.50;;;17.00;57.80;;;;;;5051352;28;20021;-72
2022/05/06 12:08:07;;;;;;;1.17;0.30;;;17.10;57.50;;;;;;5051503;28;20040;-72
2022/05/06 12:10:35;;;;;;;3.63;0.40;;;17.20;57.90;;;;;;5051147;28;20017;-72
2022/05/06 12:13:06;;;;;;;1.73;0.60;;;17.20;57.80;;;;;;5050948;28;20476;-72
2022/05/06 12:15:43;;;;;;;1.48;0.40;;;17.30;57.70;;;;;;5051010;28;20064;-72
2022/05/06 12:18:09;;;;;;;1.23;0.45;;;17.30;57.50;;;;;;5049280;28;20392;-74
2022/05/06 12:20:40;;;;;;;3.13;0.40;;;17.30;58.60;;;;;;5051086;28;20473;-73
2022/05/06 12:23:08;;;;;;;3.85;0.60;;;17.40;58.30;;;;;;5051155;28;20028;-79
2022/05/06 12:25:41;;;;;;;2.70;0.40;;;17.40;57.80;;;;;;5051353;28;20104;-71
2022/05/06 12:28:13;;;;;;;2.20;0.68;;;17.50;57.50;;;;;;5051507;28;20029;-71
2022/05/06 12:30:39;;;;;;;8.95;0.80;;;17.40;57.30;;;;;;5051579;28;20029;-71
2022/05/06 12:33:11;;;;;;;3.83;0.82;;;17.40;57.50;;;;;;5051251;28;20488;-71
2022/05/06 12:35:56;;;;;;;7.32;0.57;;;17.50;58.10;;;;;;5051552;28;20021;-71
2022/05/06 12:38:26;;;;;;;2.28;0.60;;;17.50;57.40;;;;;;5052511;28;20037;-71
2022/05/06 12:40:53;;;;;;;3.53;0.40;;;17.50;57.40;;;;;;5055402;28;20106;-71
2022/05/06 12:43:28;;;;;;;4.57;0.95;;;17.50;57.30;;;;;;5055128;28;20443;-71
2022/05/06 12:45:56;;;;;;;2.95;0.22;;;17.50;57.40;;;;;;5054845;28;20252;-71
2022/05/06 12:51:07;;;;;;;10.43;0.50;;;17.60;57.40;;;;;;5054816;28;20040;-71
2022/05/06 12:53:34;;;;;;;5.28;0.40;;;17.60;57.00;;;;;;5055015;28;20025;-71
2022/05/06 12:56:01;;;;;;;9.18;0.60;;;17.50;57.00;;;;;;5054914;28;20457;-71
2022/05/06 12:58:28;;;;;;;11.90;0.80;;;17.50;57.30;;;;;;5054801;28;20029;-71
2022/05/06 13:01:00;;;;;;;8.00;0.70;;;17.50;57.10;;;;;;5054892;28;20379;-71
2022/05/06 13:03:26;;;;;;;8.70;1.15;;;17.50;57.10;;;;;;5054566;28;20499;-71
2022/05/06 13:05:53;;;;;;;4.10;0.75;;;17.50;57.30;;;;;;5054586;28;20511;-71
2022/05/06 13:08:20;;;;;;;1.50;0.32;;;17.60;57.20;;;;;;5054556;28;20174;-71
2022/05/06 13:10:45;;;;;;;5.50;0.57;;;17.60;57.10;;;;;;5054469;28;20177;-71
2022/05/06 13:13:11;;;;;;;1.55;0.40;;;17.50;57.10;;;;;;5053183;28;20103;-71
2022/05/06 13:15:37;;;;;;;0.70;0.30;;;17.60;57.40;;;;;;5054388;28;20067;-71
2022/05/06 13:18:03;;;;;;;0.77;0.40;;;17.60;57.20;;;;;;5054464;28;20025;-71
2022/05/06 13:20:29;;;;;;;4.78;0.43;;;17.50;57.30;;;;;;5054295;28;20500;-71
2022/05/06 13:22:55;;;;;;;5.13;0.60;;;17.50;57.30;;;;;;5054628;28;20052;-71
2022/05/06 13:25:20;;;;;;;1.27;0.38;;;17.50;57.40;;;;;;5054240;28;20380;-71
2022/05/06 13:27:46;;;;;;;6.47;0.50;;;17.60;57.40;;;;;;5054193;28;20071;-71
2022/05/06 13:30:12;;;;;;;3.08;0.70;;;17.70;57.30;;;;;;5052666;28;20032;-71
2022/05/06 13:32:38;;;;;;;2.60;0.50;;;17.70;57.40;;;;;;5054216;28;20040;-71
2022/05/06 13:35:04;;;;;;;3.28;0.30;;;17.80;57.20;;;;;;5053902;28;20021;-71
2022/05/06 13:37:29;;;;;;;5.40;0.45;;;17.80;57.20;;;;;;5053917;28;20031;-71
2022/05/06 13:39:55;;;;;;;4.32;0.30;;;17.80;57.00;;;;;;5054235;28;20383;-71
2022/05/06 13:42:21;;;;;;;9.25;0.45;;;17.80;57.00;;;;;;5054034;28;20025;-71
2022/05/06 13:44:47;;;;;;;1.23;0.20;;;17.80;57.00;;;;;;5054445;28;20388;-71
2022/05/06 13:47:13;;;;;;;10.40;0.60;;;17.80;56.80;;;;;;5054039;28;20108;-71
2022/05/06 13:49:41;;;;;;;2.58;0.30;;;17.80;56.90;;;;;;5053941;28;20024;-71
2022/05/06 13:52:07;;;;;;;79.03;3.65;;;17.80;57.00;;;;;;5052177;28;20049;-69
2022/05/06 13:54:33;;;;;;;5.47;0.60;;;17.80;57.00;;;;;;5053697;28;20094;-69
2022/05/06 13:59:42;;;;;;;5.25;0.40;;;17.70;57.20;;;;;;5053698;28;20028;-71
